This is the latest recevied weather packets stored in our database for station/object KJ7HSW. If no packets are shown the sender has not sent any weather packets the latest 10 day(s).
| Time | Temp. | Humidity | Pressure | Rain* | Wind** | Luminosity | Snow |
|---|---|---|---|---|---|---|---|
| 1777256943 | 14.44° C | 51% | 1009.1 hPa | 0 mm | - | 23 W/m² | - |
| 1777256639 | 15° C | 51% | 1009 hPa | 0 mm | - | 25 W/m² | - |
| 1777256335 | 15° C | 49% | 1008.9 hPa | 0 mm | - | 27 W/m² | - |
| 1777256031 | 15.56° C | 45% | 1009 hPa | 0 mm | - | 28 W/m² | - |
| 1777255727 | 15.56° C | 42% | 1009 hPa | 0 mm | - | 30 W/m² | - |
| 1777255424 | 16.11° C | 40% | 1008.9 hPa | 0 mm | - | 35 W/m² | - |
| 1777255119 | 16.67° C | 41% | 1008.7 hPa | 0 mm | - | 34 W/m² | - |
| 1777254816 | 16.67° C | 37% | 1009 hPa | 0 mm | - | 35 W/m² | - |
| 1777254514 | 16.67° C | 33% | 1008.6 hPa | 0 mm | - | 37 W/m² | - |
| 1777254210 | 16.67° C | 37% | 1008.9 hPa | 0 mm | - | 39 W/m² | - |
| 1777253906 | 17.22° C | 39% | 1008.7 hPa | 0 mm | - | 39 W/m² | - |
| 1777253602 | 17.22° C | 37% | 1008.8 hPa | 0 mm | - | 41 W/m² | - |
| 1777253301 | 17.78° C | 38% | 1008.6 hPa | 0 mm | - | 41 W/m² | - |
| 1777252998 | 18.33° C | 34% | 1008.6 hPa | 0 mm | - | 41 W/m² | - |
| 1777252695 | 18.33° C | 27% | 1008.6 hPa | 0 mm | - | 44 W/m² | - |
| 1777252392 | 18.33° C | 30% | 1008.7 hPa | 0 mm | - | 44 W/m² | - |
| 1777252090 | 18.33° C | 27% | 1008.6 hPa | 0 mm | - | 44 W/m² | - |
| 1777251787 | 18.89° C | 28% | 1008.8 hPa | 0 mm | - | 49 W/m² | - |
| 1777251483 | 18.89° C | 31% | 1008.5 hPa | 0 mm | - | 46 W/m² | - |
| 1777251179 | 18.89° C | 28% | 1008.7 hPa | 0 mm | - | 47 W/m² | - |
| 1777250875 | 18.89° C | 28% | 1008.8 hPa | 0 mm | - | 60 W/m² | - |
| 1777250567 | 18.89° C | 28% | 1008.5 hPa | 0 mm | - | 50 W/m² | - |
| 1777250267 | 19.44° C | 29% | 1008.4 hPa | 0 mm | - | 50 W/m² | - |
| 1777249964 | 19.44° C | 30% | 1008.7 hPa | 0 mm | - | 90 W/m² | - |
| 1777249660 | 19.44° C | 26% | 1008.2 hPa | 0 mm | - | 64 W/m² | - |
* Rain latest hour (hover to see other rain measurements)
** Current wind speed in m/s (hover to see current wind gust speed)